Time;durP1;ratioP1;P1;durP2;ratioP2;P2;SDS_P1;SDS_P2;PMS_P1;PMS_P2;Temp;Humidity;BMP_temperature;BMP_pressure;BME280_temperature;BME280_humidity;BME280_pressure;Samples;Min_cycle;Max_cycle;Signal;HPM_P1;HPM_P2
2023/08/23 00:00:08;;;;;;;2.37;1.90;;;;;;;22.78;58.54;99139.03;5074629;28;42750;-80
2023/08/23 00:02:41;;;;;;;2.20;2.00;;;;;;;22.75;58.92;99142.06;5089887;28;42097;-79
2023/08/23 00:05:09;;;;;;;2.50;2.10;;;;;;;22.70;58.88;99147.09;5074405;28;41013;-77
2023/08/23 00:07:37;;;;;;;1.70;1.60;;;;;;;22.58;58.76;99125.84;5092986;28;41829;-77
2023/08/23 00:10:08;;;;;;;2.53;1.77;;;;;;;22.63;59.18;99129.88;5057664;28;41968;-77
2023/08/23 00:12:35;;;;;;;2.53;2.33;;;;;;;22.58;59.33;99130.38;5071660;28;43271;-78
2023/08/23 00:15:03;;;;;;;2.83;1.63;;;;;;;22.29;59.38;99089.47;5097773;28;40704;-78
2023/08/23 00:17:31;;;;;;;2.80;1.63;;;;;;;22.52;59.24;99133.72;5100221;28;41909;-78
2023/08/23 00:19:58;;;;;;;1.80;1.70;;;;;;;22.49;59.27;99134.94;5076007;28;42141;-78
2023/08/23 00:22:25;;;;;;;1.70;1.60;;;;;;;22.48;59.27;99143.19;5073843;28;42280;-80
2023/08/23 00:24:53;;;;;;;2.00;1.80;;;;;;;22.45;59.15;99136.25;5073263;28;39820;-81
2023/08/23 00:27:22;;;;;;;1.70;1.60;;;;;;;22.39;59.45;99127.94;5073525;28;42636;-81
2023/08/23 00:29:49;;;;;;;1.90;1.80;;;;;;;22.39;59.57;99134.19;5056636;28;41631;-78
2023/08/23 00:32:17;;;;;;;1.70;1.60;;;;;;;22.37;59.55;99138.94;5073482;28;42541;-81
2023/08/23 00:34:44;;;;;;;1.70;1.60;;;;;;;22.34;59.66;99139.25;5056826;28;38732;-77
2023/08/23 00:37:12;;;;;;;2.10;1.90;;;;;;;22.26;60.18;99125.72;5073278;28;41928;-79
2023/08/23 00:39:40;;;;;;;2.60;2.00;;;;;;;22.26;60.30;99133.81;5073228;28;42691;-78
2023/08/23 00:42:07;;;;;;;3.07;1.93;;;;;;;22.15;60.46;99120.63;5055987;28;44002;-78
2023/08/23 00:44:36;;;;;;;1.80;1.70;;;;;;;22.19;60.52;99138.19;5073109;28;38962;-80
2023/08/23 00:47:05;;;;;;;2.00;1.80;;;;;;;22.16;60.47;99139.34;5072876;28;40597;-80
2023/08/23 00:49:34;;;;;;;1.77;1.67;;;;;;;22.13;60.54;99130.75;5092567;28;43750;-80
2023/08/23 00:52:04;;;;;;;2.23;2.03;;;;;;;22.08;60.46;99133.09;5076584;28;42286;-79
2023/08/23 00:54:32;;;;;;;1.90;1.80;;;;;;;21.96;60.48;99120.84;5077888;28;39781;-80
2023/08/23 00:57:00;;;;;;;2.43;1.63;;;;;;;21.93;60.31;99122.03;5077506;28;42605;-79
2023/08/23 00:59:30;;;;;;;2.83;2.00;;;;;;;21.96;60.63;99131.66;5077749;28;43196;-80
2023/08/23 01:02:00;;;;;;;1.90;1.73;;;;;;;21.77;60.87;99112.00;5077548;28;42020;-76
2023/08/23 01:04:27;;;;;;;2.87;2.57;;;;;;;21.90;60.88;99134.97;5060875;28;38957;-77
2023/08/23 01:07:03;;;;;;;1.97;1.87;;;;;;;21.87;60.75;99138.88;5077857;28;42012;-81
2023/08/23 01:09:41;;;;;;;1.77;1.67;;;;;;;21.83;60.94;99132.94;5092806;28;43444;-77
2023/08/23 01:12:18;;;;;;;1.87;1.77;;;;;;;21.79;61.41;99136.09;5092135;28;42242;-79
2023/08/23 01:14:52;;;;;;;2.10;1.90;;;;;;;21.75;61.58;99129.38;5059251;28;40362;-77
2023/08/23 01:17:23;;;;;;;1.70;1.60;;;;;;;21.70;61.62;99146.00;5059559;28;41747;-78
2023/08/23 01:19:51;;;;;;;1.67;1.57;;;;;;;21.53;61.37;99117.25;5075991;28;41301;-78
2023/08/23 01:22:20;;;;;;;2.87;1.80;;;;;;;21.63;61.56;99144.97;5094414;28;42148;-78
2023/08/23 01:24:50;;;;;;;2.00;1.90;;;;;;;21.60;61.64;99142.56;5059011;28;41832;-81
2023/08/23 01:27:19;;;;;;;2.60;2.13;;;;;;;21.57;61.89;99145.59;5073364;28;42739;-79
2023/08/23 01:29:48;;;;;;;2.47;1.90;;;;;;;21.53;62.12;99141.50;5075831;28;44038;-79
2023/08/23 01:32:37;;;;;;;1.80;1.70;;;;;;;21.49;62.81;99134.75;5059264;28;42367;-79
2023/08/23 01:35:11;;;;;;;1.93;1.80;;;;;;;21.46;62.69;99137.75;5073360;28;40006;-79
2023/08/23 01:37:40;;;;;;;2.63;1.93;;;;;;;21.41;62.44;99138.22;5072947;28;41716;-81
2023/08/23 01:40:11;;;;;;;2.10;1.90;;;;;;;21.39;62.93;99136.69;5058407;28;41646;-79
2023/08/23 01:42:40;;;;;;;1.93;1.77;;;;;;;21.28;62.88;99121.63;5091261;28;42461;-79
2023/08/23 01:45:08;;;;;;;2.27;2.07;;;;;;;21.32;62.86;99138.31;5075623;28;39668;-81
2023/08/23 01:47:36;;;;;;;2.43;2.20;;;;;;;21.25;63.25;99130.03;5076062;28;42794;-78
2023/08/23 01:50:04;;;;;;;1.87;1.77;;;;;;;21.27;63.71;99127.16;5058986;28;42849;-78
2023/08/23 01:52:32;;;;;;;2.33;2.20;;;;;;;21.14;63.27;99114.91;5076009;28;43139;-78
2023/08/23 01:54:59;;;;;;;2.00;1.80;;;;;;;21.21;63.65;99125.97;5059257;28;38966;-77
2023/08/23 01:57:28;;;;;;;2.30;2.10;;;;;;;21.19;63.47;99132.50;5076671;28;41835;-79
2023/08/23 01:59:56;;;;;;;2.17;1.70;;;;;;;21.16;63.91;99130.94;5059660;28;41873;-80
2023/08/23 02:02:23;;;;;;;2.00;1.90;;;;;;;21.12;63.88;99133.09;5059709;28;41494;-78
2023/08/23 02:04:51;;;;;;;2.07;1.70;;;;;;;21.10;63.81;99129.72;5059719;28;39925;-79
2023/08/23 02:07:18;;;;;;;2.30;2.10;;;;;;;20.96;63.75;99111.41;5060102;28;40898;-77
2023/08/23 02:09:46;;;;;;;2.00;1.90;;;;;;;21.06;63.66;99128.31;5059823;28;41597;-77
2023/08/23 02:12:14;;;;;;;1.87;1.77;;;;;;;20.73;63.44;99078.75;5059651;28;41104;-78
2023/08/23 02:14:43;;;;;;;2.43;2.23;;;;;;;21.01;64.09;99127.97;5076362;28;39931;-80
2023/08/23 02:17:10;;;;;;;2.03;1.93;;;;;;;21.00;63.99;99128.13;5076037;28;43032;-78
2023/08/23 02:19:38;;;;;;;2.50;1.73;;;;;;;20.92;63.68;99115.41;5074514;28;41522;-79
2023/08/23 02:22:05;;;;;;;2.70;1.80;;;;;;;20.95;64.20;99131.25;5058380;28;42128;-78
2023/08/23 02:24:33;;;;;;;2.60;2.07;;;;;;;20.85;64.17;99113.50;5075523;28;39993;-77
2023/08/23 02:27:00;;;;;;;2.13;1.90;;;;;;;20.59;64.08;99076.59;5074913;28;42692;-80
2023/08/23 02:29:28;;;;;;;2.40;1.60;;;;;;;20.89;64.12;99125.66;5075333;28;42824;-78
2023/08/23 02:31:57;;;;;;;1.83;1.73;;;;;;;20.87;64.04;99133.06;5058389;28;40651;-80
2023/08/23 02:34:24;;;;;;;2.17;1.97;;;;;;;20.84;64.32;99134.19;5058127;28;38797;-79
2023/08/23 02:36:52;;;;;;;2.03;1.80;;;;;;;20.53;64.36;99092.50;5074937;28;41740;-79
2023/08/23 02:39:20;;;;;;;2.30;2.10;;;;;;;20.68;64.44;99125.97;5058102;28;41369;-78
2023/08/23 02:41:47;;;;;;;2.40;2.20;;;;;;;20.74;64.50;99139.66;5057510;28;41352;-77
2023/08/23 02:44:15;;;;;;;2.83;2.10;;;;;;;20.66;64.96;99126.09;5075279;28;39940;-78
2023/08/23 02:46:42;;;;;;;4.03;1.93;;;;;;;20.70;64.56;99132.88;5074896;28;41953;-78
2023/08/23 02:49:11;;;;;;;2.10;2.00;;;;;;;20.66;64.69;99136.03;5091732;28;43767;-78
2023/08/23 02:51:39;;;;;;;2.27;1.90;;;;;;;20.65;64.75;99131.63;5057729;28;41287;-78
2023/08/23 02:54:06;;;;;;;2.10;1.90;;;;;;;20.65;64.66;99131.63;5058535;28;41700;-79
2023/08/23 02:56:34;;;;;;;2.20;2.00;;;;;;;20.57;64.79;99124.34;5091971;28;41662;-78
2023/08/23 02:59:01;;;;;;;2.20;2.10;;;;;;;20.62;65.31;99129.28;5075617;28;41652;-78
2023/08/23 03:01:29;;;;;;;2.30;2.10;;;;;;;20.54;65.48;99121.09;5075493;28;43259;-80
2023/08/23 03:03:56;;;;;;;2.17;2.00;;;;;;;20.57;65.34;99128.88;5059197;28;39971;-79
2023/08/23 03:06:26;;;;;;;2.60;1.97;;;;;;;20.54;65.38;99135.41;5093597;28;42825;-79
2023/08/23 03:08:53;;;;;;;1.90;1.80;;;;;;;20.53;65.74;99124.78;5093692;28;42882;-78
2023/08/23 03:11:21;;;;;;;2.00;1.90;;;;;;;20.51;65.71;99129.50;5058428;28;41807;-77
2023/08/23 03:13:48;;;;;;;2.50;2.30;;;;;;;20.39;65.52;99110.88;5058133;28;38988;-78
2023/08/23 03:16:16;;;;;;;2.33;2.00;;;;;;;20.46;65.91;99123.72;5075110;28;42429;-79
2023/08/23 03:18:44;;;;;;;1.90;1.80;;;;;;;20.44;65.74;99122.03;5073280;28;42844;-80
2023/08/23 03:21:12;;;;;;;2.13;2.00;;;;;;;20.42;66.16;99126.69;5057244;28;41130;-77
2023/08/23 03:23:42;;;;;;;2.27;1.80;;;;;;;20.41;66.01;99125.00;5074702;28;40938;-78
2023/08/23 03:26:10;;;;;;;1.60;1.50;;;;;;;20.40;65.99;99131.38;5056770;28;41514;-77
2023/08/23 03:28:37;;;;;;;1.93;1.83;;;;;;;20.37;66.24;99120.94;5057418;28;43346;-78
2023/08/23 03:31:09;;;;;;;2.07;1.97;;;;;;;20.37;66.33;99120.94;5073071;28;43586;-77
2023/08/23 03:33:36;;;;;;;2.37;1.90;;;;;;;20.35;66.23;99131.00;5057528;28;38796;-79
2023/08/23 03:36:04;;;;;;;2.20;2.00;;;;;;;20.35;66.44;99122.06;5073798;28;41794;-80
2023/08/23 03:38:32;;;;;;;1.90;1.80;;;;;;;20.33;66.92;99122.19;5074197;28;42629;-77
2023/08/23 03:41:01;;;;;;;2.27;2.13;;;;;;;20.32;67.65;99109.75;5073629;28;42321;-79
2023/08/23 03:43:29;;;;;;;2.73;2.53;;;;;;;20.33;67.64;99114.13;5057512;28;40033;-81
2023/08/23 03:45:56;;;;;;;2.53;2.07;;;;;;;20.33;67.63;99103.38;5073986;28;41849;-77
2023/08/23 03:48:25;;;;;;;2.70;2.50;;;;;;;20.33;68.16;99106.06;5056944;28;42789;-78
2023/08/23 03:50:52;;;;;;;2.50;2.30;;;;;;;20.32;68.28;99101.69;5056776;28;41235;-79
2023/08/23 03:53:20;;;;;;;2.50;2.30;;;;;;;20.34;68.36;99115.81;5057092;28;40033;-79
2023/08/23 03:55:52;;;;;;;2.27;2.13;;;;;;;20.33;68.44;99118.66;5092562;28;41492;-79
2023/08/23 03:58:21;;;;;;;3.40;2.50;;;;;;;20.32;68.03;99117.81;5076379;28;42076;-77
2023/08/23 04:00:50;;;;;;;2.67;2.20;;;;;;;20.29;68.34;99112.72;5059455;28;42013;-77
2023/08/23 04:03:18;;;;;;;2.40;2.20;;;;;;;20.29;68.05;99123.50;5058169;28;38535;-78
2023/08/23 04:05:45;;;;;;;2.40;2.20;;;;;;;20.28;68.15;99113.72;5091406;28;42756;-77
2023/08/23 04:08:13;;;;;;;2.37;2.10;;;;;;;20.26;68.30;99118.44;5074795;28;43766;-76
2023/08/23 04:10:46;;;;;;;2.20;2.00;;;;;;;20.21;68.20;99109.97;5057162;28;41483;-76
2023/08/23 04:13:14;;;;;;;3.53;2.47;;;;;;;20.20;68.40;99123.56;5071315;28;39801;-76
2023/08/23 04:15:43;;;;;;;2.60;2.40;;;;;;;20.15;68.30;99126.72;5074008;28;41700;-76
2023/08/23 04:18:11;;;;;;;2.10;1.80;;;;;;;20.13;68.08;99127.84;5073386;28;42622;-76
2023/08/23 04:20:39;;;;;;;2.17;2.00;;;;;;;19.95;68.35;99098.22;5073304;28;42246;-76
2023/08/23 04:23:07;;;;;;;1.83;1.73;;;;;;;20.04;68.35;99124.19;5071786;28;40900;-76
2023/08/23 04:25:35;;;;;;;2.30;2.10;;;;;;;20.02;68.20;99131.59;5088520;28;42723;-76
2023/08/23 04:28:03;;;;;;;2.10;2.00;;;;;;;19.99;67.92;99138.09;5055823;28;42344;-76
2023/08/23 04:30:31;;;;;;;2.43;2.23;;;;;;;19.96;67.78;99132.16;5071857;28;41172;-76
2023/08/23 04:33:01;;;;;;;2.37;2.20;;;;;;;19.94;68.22;99140.38;5072637;28;41118;-76
2023/08/23 04:35:28;;;;;;;2.60;2.40;;;;;;;19.93;68.08;99137.84;5055426;28;40805;-76
2023/08/23 04:37:56;;;;;;;2.70;2.50;;;;;;;19.91;67.74;99135.28;5072517;28;42680;-76
2023/08/23 04:40:23;;;;;;;2.27;2.07;;;;;;;19.92;67.91;99133.44;5055147;28;41178;-76
2023/08/23 04:42:51;;;;;;;2.20;2.00;;;;;;;19.92;67.81;99130.75;5055956;28;38665;-76
2023/08/23 04:45:19;;;;;;;1.93;1.80;;;;;;;19.89;68.04;99125.72;5055553;28;41672;-76
2023/08/23 04:47:48;;;;;;;3.73;1.90;;;;;;;19.93;67.99;99135.16;5055797;28;42462;-76
2023/08/23 04:50:19;;;;;;;2.87;2.27;;;;;;;19.94;67.93;99134.16;5055198;28;41604;-76
2023/08/23 04:52:47;;;;;;;2.43;2.27;;;;;;;19.97;68.09;99131.19;5055833;28;38750;-76
2023/08/23 04:55:14;;;;;;;1.90;1.80;;;;;;;19.99;67.79;99137.25;5072035;28;40605;-76
2023/08/23 04:57:41;;;;;;;2.20;2.03;;;;;;;20.03;67.92;99142.16;5056080;28;41365;-76
2023/08/23 05:00:11;;;;;;;2.30;2.10;;;;;;;20.06;67.63;99132.97;5055692;28;42329;-76
2023/08/23 05:02:39;;;;;;;2.40;1.97;;;;;;;20.14;68.05;99143.00;5056308;28;40054;-76
2023/08/23 05:05:08;;;;;;;2.03;1.93;;;;;;;20.19;67.76;99133.47;5055975;28;41822;-76
2023/08/23 05:07:37;;;;;;;2.00;1.90;;;;;;;20.27;67.74;99136.28;5073104;28;43160;-76
2023/08/23 05:10:06;;;;;;;2.43;2.23;;;;;;;20.34;67.82;99137.34;5089607;28;42417;-75
2023/08/23 05:12:34;;;;;;;2.43;2.07;;;;;;;20.43;67.46;99138.31;5056177;28;39054;-75
2023/08/23 05:15:02;;;;;;;2.30;2.10;;;;;;;20.50;67.33;99142.09;5055547;28;41442;-76
2023/08/23 05:17:31;;;;;;;2.30;2.10;;;;;;;20.59;67.60;99145.72;5056208;28;41281;-76
2023/08/23 05:19:58;;;;;;;2.00;1.90;;;;;;;20.67;67.52;99148.47;5071698;28;42778;-76
2023/08/23 05:22:26;;;;;;;2.30;2.10;;;;;;;20.75;67.48;99156.66;5055287;28;39695;-75
2023/08/23 05:24:55;;;;;;;2.23;2.13;;;;;;;20.85;67.64;99162.81;5071109;28;42427;-76
2023/08/23 05:27:22;;;;;;;2.93;2.30;;;;;;;20.92;68.31;99155.81;5071690;28;44019;-76
2023/08/23 05:29:51;;;;;;;3.00;2.80;;;;;;;21.00;69.27;99157.75;5071470;28;42341;-76
2023/08/23 05:32:18;;;;;;;2.90;2.70;;;;;;;21.08;68.94;99153.25;5071518;28;41005;-75
2023/08/23 05:34:46;;;;;;;2.50;2.30;;;;;;;21.21;68.34;99152.91;5054780;28;41141;-76
2023/08/23 05:37:14;;;;;;;2.27;2.07;;;;;;;21.40;67.69;99157.25;5075097;28;41726;-76
2023/08/23 05:39:43;;;;;;;3.40;2.47;;;;;;;21.52;67.38;99161.38;5058137;28;41171;-76
2023/08/23 05:42:11;;;;;;;2.60;2.40;;;;;;;21.63;67.08;99163.84;5075015;28;40315;-74
2023/08/23 05:44:47;;;;;;;2.40;2.20;;;;;;;21.80;66.97;99160.22;5075547;28;41505;-80
2023/08/23 05:47:15;;;;;;;2.33;2.00;;;;;;;21.99;66.31;99164.56;5072789;28;43601;-76
2023/08/23 05:49:43;;;;;;;2.40;2.20;;;;;;;22.14;66.83;99168.34;5058457;28;41072;-79
2023/08/23 05:52:11;;;;;;;2.13;2.03;;;;;;;22.30;66.45;99172.97;5075772;28;40294;-83
2023/08/23 05:54:38;;;;;;;2.83;2.57;;;;;;;22.45;66.52;99165.94;5094721;28;42439;-83
2023/08/23 05:57:06;;;;;;;2.43;2.23;;;;;;;22.67;65.97;99182.53;5059078;28;42986;-80
2023/08/23 05:59:35;;;;;;;2.53;2.33;;;;;;;22.75;65.60;99180.69;5059569;28;42485;-82
2023/08/23 06:02:02;;;;;;;3.53;2.70;;;;;;;22.82;65.24;99184.47;5076265;28;39795;-79
2023/08/23 06:04:30;;;;;;;2.80;2.20;;;;;;;22.86;64.98;99174.19;5076413;28;40578;-76
2023/08/23 06:06:57;;;;;;;2.60;2.40;;;;;;;22.89;65.18;99180.06;5076179;28;42491;-77
2023/08/23 06:09:25;;;;;;;2.43;2.30;;;;;;;22.98;65.06;99172.84;5075968;28;41671;-79
2023/08/23 06:11:52;;;;;;;2.43;2.23;;;;;;;23.11;64.93;99183.16;5054544;28;41149;-76
2023/08/23 06:14:20;;;;;;;2.70;2.43;;;;;;;23.23;64.59;99174.56;5075499;28;42687;-77
2023/08/23 06:16:50;;;;;;;2.77;2.10;;;;;;;23.41;64.14;99184.34;5057477;28;41809;-78
2023/08/23 06:19:18;;;;;;;2.47;2.30;;;;;;;23.49;64.07;99182.47;5051976;28;41384;-82
2023/08/23 06:21:46;;;;;;;2.50;2.30;;;;;;;23.54;63.87;99187.41;5088263;28;40199;-80
2023/08/23 06:24:13;;;;;;;2.27;2.07;;;;;;;23.60;63.41;99189.44;5091602;28;42764;-79
2023/08/23 06:26:41;;;;;;;2.83;2.23;;;;;;;23.69;62.69;99184.88;5090531;28;42504;-79
2023/08/23 06:29:08;;;;;;;2.37;2.10;;;;;;;23.81;62.44;99184.34;5091526;28;43364;-80
2023/08/23 06:31:36;;;;;;;2.17;2.03;;;;;;;23.98;61.63;99191.38;5073941;28;39909;-79
2023/08/23 06:34:05;;;;;;;2.70;2.20;;;;;;;24.17;60.61;99198.28;5111743;28;41545;-81
2023/08/23 06:36:33;;;;;;;1.77;1.67;;;;;;;24.30;60.24;99192.34;5094116;28;42898;-78
2023/08/23 06:39:00;;;;;;;1.87;1.77;;;;;;;24.33;60.28;99181.16;5078028;28;41600;-82
2023/08/23 06:41:27;;;;;;;2.27;2.07;;;;;;;24.48;59.60;99192.13;5093900;28;39408;-81
2023/08/23 06:43:59;;;;;;;1.70;1.60;;;;;;;24.56;58.91;99192.91;5113148;28;41715;-77
2023/08/23 06:46:27;;;;;;;2.53;2.10;;;;;;;24.54;58.94;99178.69;5076599;28;43059;-87
2023/08/23 06:48:55;;;;;;;2.53;1.70;;;;;;;24.61;58.74;99173.41;5094849;28;41233;-86
2023/08/23 06:51:27;;;;;;;2.53;2.33;;;;;;;24.79;58.71;99186.69;5112497;28;40513;-88
2023/08/23 06:53:54;;;;;;;2.20;2.00;;;;;;;24.94;59.01;99195.78;5112780;28;41811;-81
2023/08/23 06:56:22;;;;;;;3.37;1.87;;;;;;;25.03;58.72;99206.38;5113238;28;42915;-82
2023/08/23 06:58:49;;;;;;;2.20;2.00;;;;;;;25.16;58.62;99194.94;5095740;28;42692;-84
2023/08/23 07:01:17;;;;;;;5.83;2.17;;;;;;;25.31;57.94;99203.13;5095553;28;39914;-81
2023/08/23 07:03:45;;;;;;;3.63;2.10;;;;;;;25.54;57.15;99194.97;5096072;28;40996;-82
2023/08/23 07:06:14;;;;;;;1.80;1.70;;;;;;;25.75;57.14;99206.84;5095244;28;42699;-82
2023/08/23 07:08:44;;;;;;;2.67;2.10;;;;;;;25.75;57.01;99195.97;5096367;28;43375;-85
2023/08/23 07:11:12;;;;;;;2.60;2.17;;;;;;;25.77;56.46;99198.50;5093728;28;40148;-86
2023/08/23 07:13:39;;;;;;;2.30;2.10;;;;;;;25.95;56.77;99200.88;5077590;28;40980;-84
2023/08/23 07:16:07;;;;;;;2.10;1.87;;;;;;;26.15;56.63;99206.59;5094143;28;41346;-84
2023/08/23 07:18:35;;;;;;;2.50;2.30;;;;;;;26.43;56.23;99215.81;5112769;28;42417;-84
2023/08/23 07:21:03;;;;;;;2.40;1.97;;;;;;;26.74;54.90;99219.13;5094064;28;39227;-82
2023/08/23 07:23:30;;;;;;;2.63;2.00;;;;;;;26.69;54.22;99186.25;5076964;28;40796;-86
2023/08/23 07:26:02;;;;;;;2.20;1.77;;;;;;;27.03;53.62;99225.56;5077071;28;42703;-83
2023/08/23 07:28:30;;;;;;;3.70;2.07;;;;;;;27.34;52.78;99231.53;5112691;28;41675;-88
2023/08/23 07:30:57;;;;;;;2.93;2.10;;;;;;;27.54;51.30;99239.91;5093933;28;40226;-86
2023/08/23 07:33:24;;;;;;;2.23;2.03;;;;;;;27.61;51.30;99237.25;5110657;28;41090;-79
2023/08/23 07:35:56;;;;;;;3.23;2.07;;;;;;;27.73;51.69;99235.69;5076251;28;42848;-79
2023/08/23 07:38:25;;;;;;;3.50;2.40;;;;;;;27.76;51.62;99218.97;5101862;28;41617;-82
2023/08/23 07:40:57;;;;;;;2.07;1.90;;;;;;;27.83;51.19;99228.88;5089026;28;38812;-80
2023/08/23 07:43:26;;;;;;;2.30;2.10;;;;;;;28.00;51.58;99239.47;5109142;28;41976;-78
2023/08/23 07:45:54;;;;;;;2.23;2.03;;;;;;;28.18;51.07;99237.97;5111292;28;42905;-77
2023/08/23 07:48:23;;;;;;;3.40;2.43;;;;;;;28.60;51.27;99239.66;5077205;28;41546;-83
2023/08/23 07:50:51;;;;;;;3.57;2.27;;;;;;;29.34;50.20;99246.25;5111852;28;40870;-86
2023/08/23 07:53:18;;;;;;;2.53;2.27;;;;;;;29.87;48.32;99252.63;5077925;28;41037;-85
2023/08/23 07:55:46;;;;;;;2.40;2.20;;;;;;;30.25;47.30;99255.56;5094425;28;42820;-79
2023/08/23 07:58:14;;;;;;;2.53;2.20;;;;;;;30.65;46.97;99261.84;5094500;28;42215;-80
2023/08/23 08:00:43;;;;;;;3.73;2.40;;;;;;;31.20;45.38;99270.44;5076749;28;40245;-80
2023/08/23 08:03:11;;;;;;;2.40;2.20;;;;;;;31.56;44.78;99276.13;5094292;28;42718;-75
2023/08/23 08:05:38;;;;;;;4.47;2.20;;;;;;;31.53;41.74;99292.19;5093231;28;43425;-77
2023/08/23 08:08:07;;;;;;;2.10;1.90;;;;;;;31.32;44.50;99265.97;5077392;28;40523;-76
2023/08/23 08:10:34;;;;;;;2.30;2.10;;;;;;;31.25;44.59;99267.91;5111880;28;39985;-84
2023/08/23 08:13:02;;;;;;;2.87;1.83;;;;;;;31.26;44.94;99247.69;5075957;28;40888;-86
2023/08/23 08:15:31;;;;;;;2.53;2.33;;;;;;;31.36;43.74;99259.00;5093396;28;42643;-81
2023/08/23 08:18:00;;;;;;;2.13;2.00;;;;;;;31.68;44.78;99271.66;5093640;28;41315;-78
2023/08/23 08:20:27;;;;;;;3.13;2.03;;;;;;;31.82;42.74;99296.19;5110812;28;39780;-82
2023/08/23 08:22:55;;;;;;;2.53;2.07;;;;;;;31.84;43.57;99288.59;5093166;28;40752;-82
2023/08/23 08:25:22;;;;;;;3.17;2.17;;;;;;;32.08;42.64;99291.34;5075440;28;41748;-86
2023/08/23 08:27:51;;;;;;;3.50;2.10;;;;;;;32.09;42.71;99290.28;5093789;28;42329;-81
2023/08/23 08:30:19;;;;;;;1.90;1.80;;;;;;;32.19;42.95;99286.22;5093377;28;38950;-85
2023/08/23 08:32:47;;;;;;;2.23;2.03;;;;;;;32.24;40.86;99294.63;5077008;28;40842;-86
2023/08/23 08:35:16;;;;;;;2.93;2.20;;;;;;;32.51;42.29;99285.09;5092641;28;42883;-84
2023/08/23 08:37:44;;;;;;;2.20;2.00;;;;;;;32.79;39.85;99303.78;5093227;28;42458;-79
2023/08/23 08:40:12;;;;;;;2.17;2.07;;;;;;;33.02;40.45;99303.09;5075210;28;39931;-81
2023/08/23 08:42:40;;;;;;;3.03;2.00;;;;;;;33.51;39.48;99291.03;5110624;28;40629;-84
2023/08/23 08:45:08;;;;;;;3.43;2.57;;;;;;;34.02;39.58;99260.25;5092280;28;42057;-77
2023/08/23 08:47:36;;;;;;;2.00;1.80;;;;;;;34.85;38.33;99294.97;5111160;28;42698;-78
2023/08/23 08:50:04;;;;;;;2.30;2.10;;;;;;;35.71;36.91;99318.75;5092103;28;40019;-77
2023/08/23 08:52:33;;;;;;;4.03;2.17;;;;;;;36.24;35.20;99334.03;5111355;28;42813;-84
2023/08/23 08:55:02;;;;;;;4.05;2.03;;;;;;;36.87;33.00;99316.25;5110765;28;42892;-86
2023/08/23 08:57:30;;;;;;;3.05;2.15;;;;;;;38.08;32.11;99323.22;5077094;28;41073;-81
2023/08/23 08:59:59;;;;;;;2.35;1.83;;;;;;;39.12;31.02;99343.91;5111037;28;39702;-78
2023/08/23 09:02:29;;;;;;;2.13;1.73;;;;;;;39.11;30.65;99329.22;5076620;28;40476;-80
2023/08/23 09:04:56;;;;;;;2.50;1.92;;;;;;;39.26;30.73;99336.75;5077178;28;42837;-82
2023/08/23 09:07:24;;;;;;;2.80;1.95;;;;;;;40.01;28.60;99354.75;5095073;28;41874;-87
2023/08/23 09:09:55;;;;;;;1.77;1.67;;;;;;;40.55;28.15;99309.78;5113859;27;40896;-87
2023/08/23 09:12:23;;;;;;;2.28;1.88;;;;;;;41.51;26.45;99331.72;5099745;28;41889;-88
2023/08/23 09:14:51;;;;;;;2.47;1.80;;;;;;;42.16;26.43;99348.31;5064238;28;42807;-83
2023/08/23 09:17:22;;;;;;;1.70;1.60;;;;;;;42.25;25.97;99329.84;5114118;28;42498;-85
2023/08/23 09:19:50;;;;;;;2.55;1.60;;;;;;;41.86;27.14;99346.53;5078907;28;38973;-84
2023/08/23 09:22:21;;;;;;;3.30;1.70;;;;;;;41.87;25.87;99357.38;5079595;28;40855;-83
2023/08/23 09:24:49;;;;;;;4.72;2.10;;;;;;;41.52;25.54;99355.63;5095581;28;43799;-81
2023/08/23 09:27:20;;;;;;;2.50;1.70;;;;;;;41.50;27.08;99345.91;5114343;28;42016;-78
2023/08/23 09:29:48;;;;;;;2.50;1.73;;;;;;;41.73;25.79;99347.19;5095411;28;40147;-81
2023/08/23 09:32:16;;;;;;;1.95;1.73;;;;;;;42.39;25.18;99346.75;5096585;28;41672;-80
2023/08/23 09:34:43;;;;;;;3.53;2.00;;;;;;;43.25;24.54;99348.63;5095353;28;41609;-81
2023/08/23 09:37:11;;;;;;;2.20;2.00;;;;;;;43.83;24.03;99348.41;5079049;28;41737;-79
2023/08/23 09:39:38;;;;;;;2.00;1.80;;;;;;;43.48;24.27;99342.19;5114342;28;40274;-86
2023/08/23 09:42:08;;;;;;;1.65;1.55;;;;;;;42.62;24.49;99340.38;5095977;28;41653;-85
2023/08/23 09:44:43;;;;;;;3.05;1.65;;;;;;;41.57;25.59;99336.16;5114326;28;42946;-81
2023/08/23 09:47:15;;;;;;;2.20;1.70;;;;;;;40.85;27.40;99318.06;5078805;28;41127;-83
2023/08/23 09:49:44;;;;;;;1.70;1.52;;;;;;;40.53;26.46;99326.75;5091921;28;41189;-79
2023/08/23 09:52:12;;;;;;;3.10;1.77;;;;;;;40.69;25.78;99338.63;5095141;28;41770;-81
2023/08/23 09:54:54;;;;;;;2.17;1.50;;;;;;;40.82;26.63;99328.91;5079048;28;41672;-82
2023/08/23 09:57:22;;;;;;;2.42;1.73;;;;;;;40.40;26.22;99323.69;5079125;28;41052;-77
2023/08/23 09:59:52;;;;;;;2.17;1.70;;;;;;;39.75;27.11;99305.88;5079765;28;40236;-83
2023/08/23 10:02:20;;;;;;;2.00;1.85;;;;;;;39.23;28.38;99290.19;5115185;28;42283;-82
2023/08/23 10:04:49;;;;;;;1.60;1.50;;;;;;;38.76;29.12;99285.53;5095725;28;43361;-81
2023/08/23 10:07:18;;;;;;;1.80;1.70;;;;;;;38.49;28.14;99301.41;5113464;28;41308;-88
2023/08/23 10:09:47;;;;;;;1.98;1.77;;;;;;;38.36;29.00;99301.84;5112601;28;39765;-79
2023/08/23 10:12:15;;;;;;;2.05;1.88;;;;;;;38.15;28.89;99295.34;5114668;28;41811;-83
2023/08/23 10:14:46;;;;;;;2.47;2.17;;;;;;;37.89;30.43;99269.38;5079511;28;41891;-87
2023/08/23 10:17:19;;;;;;;2.10;1.80;;;;;;;37.92;30.19;99285.44;5111447;28;42358;-82
2023/08/23 10:19:49;;;;;;;1.83;1.73;;;;;;;38.03;30.40;99270.59;5095740;28;39953;-86
2023/08/23 10:22:18;;;;;;;2.22;2.00;;;;;;;37.73;30.38;99271.16;5109546;28;42654;-82
2023/08/23 10:24:47;;;;;;;2.00;1.75;;;;;;;37.36;31.15;99271.03;5112656;28;43561;-82
2023/08/23 10:27:17;;;;;;;3.78;1.95;;;;;;;36.98;30.55;99262.81;5078337;28;41073;-83
2023/08/23 10:29:50;;;;;;;2.33;1.95;;;;;;;36.90;31.85;99274.34;5094807;28;39980;-83
2023/08/23 10:32:21;;;;;;;3.72;2.28;;;;;;;36.94;31.50;99272.75;5092422;28;41707;-83
2023/08/23 10:34:48;;;;;;;2.00;1.80;;;;;;;37.12;31.73;99255.81;5094691;28;43882;-78
2023/08/23 10:37:17;;;;;;;2.10;1.90;;;;;;;37.76;29.88;99269.81;5077756;28;42198;-81
2023/08/23 10:39:49;;;;;;;1.52;1.40;;;;;;;38.86;28.76;99278.38;5094577;28;41007;-83
2023/08/23 10:42:17;;;;;;;3.08;1.73;;;;;;;40.17;27.31;99289.84;5094912;28;42723;-86
2023/08/23 10:44:46;;;;;;;3.28;1.63;;;;;;;41.43;25.71;99268.34;5113261;28;42797;-92
2023/08/23 10:47:16;;;;;;;1.60;1.50;;;;;;;42.63;24.48;99280.75;5078427;28;41689;-84
2023/08/23 10:49:46;;;;;;;1.65;1.55;;;;;;;42.79;23.38;99295.34;5094281;28;39831;-83
2023/08/23 10:52:14;;;;;;;1.77;1.40;;;;;;;42.25;24.46;99291.69;5077794;28;40652;-82
2023/08/23 10:54:41;;;;;;;1.80;1.70;;;;;;;41.72;25.07;99276.81;5113730;28;43785;-78
2023/08/23 10:57:09;;;;;;;1.48;1.38;;;;;;;41.82;25.09;99259.19;5096405;28;41089;-81
2023/08/23 10:59:37;;;;;;;1.90;1.50;;;;;;;42.26;23.84;99287.78;5100592;28;40399;-78
2023/08/23 11:02:04;;;;;;;1.52;1.42;;;;;;;42.04;23.73;99273.50;5076034;28;40574;-78
2023/08/23 11:04:32;;;;;;;2.45;1.33;;;;;;;42.44;23.50;99282.63;5076571;28;42282;-77
2023/08/23 11:07:02;;;;;;;2.33;1.25;;;;;;;42.70;23.48;99281.22;5077703;28;41251;-79
2023/08/23 11:09:30;;;;;;;1.80;1.55;;;;;;;42.42;23.33;99268.16;5113425;28;40554;-79
2023/08/23 11:11:59;;;;;;;1.55;1.33;;;;;;;42.19;24.32;99270.59;5094362;28;42683;-79
2023/08/23 11:14:28;;;;;;;1.63;1.10;;;;;;;41.99;23.22;99254.06;5092151;28;42846;-79
2023/08/23 11:16:56;;;;;;;2.70;1.52;;;;;;;42.20;23.86;99280.59;5094888;28;42302;-79
2023/08/23 11:19:24;;;;;;;1.67;1.58;;;;;;;42.29;23.66;99292.75;5113589;28;40926;-79
2023/08/23 11:21:52;;;;;;;3.63;1.10;;;;;;;42.37;24.08;99270.97;5094742;28;41867;-78
2023/08/23 11:24:22;;;;;;;2.17;1.40;;;;;;;42.29;23.89;99280.78;5094799;28;41951;-79
2023/08/23 11:26:49;;;;;;;2.45;1.55;;;;;;;41.94;23.67;99287.47;5087760;28;43063;-82
2023/08/23 11:29:17;;;;;;;1.63;1.40;;;;;;;41.64;25.46;99273.81;5077801;28;39066;-85
2023/08/23 11:31:53;;;;;;;1.50;1.23;;;;;;;41.56;25.06;99275.25;5077620;28;40730;-81
2023/08/23 11:34:21;;;;;;;2.78;2.15;;;;;;;41.64;25.41;99254.34;5109916;28;42838;-86
2023/08/23 11:36:49;;;;;;;2.33;1.42;;;;;;;42.67;23.38;99287.38;5083175;28;41710;-86
2023/08/23 11:39:16;;;;;;;2.00;1.70;;;;;;;43.21;22.77;99272.28;5057803;28;39058;-83